KNJK/NJK METAR and TAF weather

Enter ICAO airport designator
Station Type Date Time Source
KNJK METAR 2019/10/15 16:56 UTC NOAA

KNJK 151656Z 29003KT 10SM CLR 27/01 A2999 RMK SLP172 T02670011


Station Type Date Time Source
KNJK Decoded METAR 2019/10/15 16:56 UTC NOAA

El Centro, Naval Air Facility, CA, United States (KNJK) 32-49-30N 115-39-38W -13M
Oct 15, 2019 - 12:56 PM EDT / 2019.10.15 1656 UTC
Wind: from the WNW (290 degrees) at 3 MPH (3 KT):0
Visibility: 10 mile(s):0
Sky conditions: clear
Temperature: 80.1 F (26.7 C)
Dew Point: 34.0 F (1.1 C)
Relative Humidity: 18%
Pressure (altimeter): 29.99 in. Hg (1015 hPa)
ob: KNJK 151656Z 29003KT 10SM CLR 27/01 A2999 RMK SLP172 T02670011
cycle: 17

Station Type Date Time Source
KNJK TAF 2019/10/15 15:59 UTC NOAA

TAF KNJK 1515/1615 VRB06KT 9999 SKC QNH2985INS
TEMPO 1519/1523 10006KT
FM160200 27006KT 9999 SKC QNH2986INS T32/1523Z T15/1613Z FS30130

Example: see airport list